Aviation Digital Data Service (ADDS)

Output produced by TAFs form (0421 UTC 07 March 2015)
found at http://aviationweather.gov/adds/tafs/
 
KROW 062326Z 0700/0724 19007KT P6SM SKC 
     FM070400 VRB03KT P6SM BKN200